createdAt,value
2022-12-24T00:04:08.698Z,100687.25
2022-12-24T00:09:11.498Z,100687.91
2022-12-24T00:14:14.291Z,100691.69
2022-12-24T00:24:44.285Z,100698.47
2022-12-24T00:29:47.400Z,100699.44
2022-12-24T00:34:50.702Z,100700.00
2022-12-24T00:39:58.861Z,100696.53
2022-12-24T00:45:01.610Z,100694.97
2022-12-24T00:55:29.012Z,100696.06
2022-12-24T01:00:32.184Z,100703.00
2022-12-24T01:05:34.978Z,100718.50
2022-12-24T01:10:43.065Z,100720.44
2022-12-24T01:15:45.997Z,100729.50
2022-12-24T01:20:57.628Z,100734.97
2022-12-24T01:26:06.663Z,100734.12
2022-12-24T01:31:14.023Z,100730.47
2022-12-24T01:36:17.088Z,100731.31
2022-12-24T01:41:26.153Z,100736.66
2022-12-24T01:46:32.876Z,100749.03
2022-12-24T01:51:41.018Z,100748.22
2022-12-24T01:56:54.068Z,100757.06
2022-12-24T02:01:57.218Z,100761.72
2022-12-24T02:07:00.304Z,100763.56
2022-12-24T02:12:12.141Z,100770.72
2022-12-24T02:17:22.152Z,100766.22
2022-12-24T02:27:58.043Z,100770.75
2022-12-24T02:33:32.023Z,100772.13
2022-12-24T02:38:40.399Z,100777.06
2022-12-24T02:43:47.608Z,100780.59
2022-12-24T02:48:57.821Z,100783.09
2022-12-24T02:54:00.895Z,100790.03
2022-12-24T02:59:27.524Z,100790.88
2022-12-24T03:04:47.740Z,100788.88
2022-12-24T03:15:30.811Z,100795.22
2022-12-24T03:20:38.009Z,100803.13
2022-12-24T03:25:43.643Z,100802.41
2022-12-24T03:30:51.793Z,100799.59
2022-12-24T03:41:19.420Z,100812.97
2022-12-24T03:46:22.373Z,100810.16
2022-12-24T03:51:26.767Z,100811.16
2022-12-24T09:13:27.226Z,101132.00
2022-12-24T09:18:30.273Z,101138.63
2022-12-24T09:23:35.629Z,101138.34
2022-12-24T10:05:42.599Z,101168.34
2022-12-24T10:17:18.558Z,101176.09
2022-12-24T11:07:30.141Z,101205.44
2022-12-24T11:12:40.473Z,101216.47
2022-12-24T11:17:48.652Z,101208.78
2022-12-24T12:22:01.732Z,101236.53
2022-12-24T12:27:20.683Z,101245.81
2022-12-24T13:23:29.270Z,101270.66
2022-12-24T13:28:35.189Z,101271.22
2022-12-24T13:34:04.967Z,101273.75
2022-12-24T14:41:35.237Z,101337.03
2022-12-24T15:12:55.371Z,101379.34
2022-12-24T16:31:47.112Z,101406.81
2022-12-24T16:36:50.130Z,101411.22
2022-12-24T16:41:53.058Z,101431.88
2022-12-24T16:47:01.932Z,101430.91
2022-12-24T16:52:05.245Z,101424.53
2022-12-24T16:57:08.039Z,101418.44
2022-12-24T17:02:18.591Z,101427.38
2022-12-24T17:12:47.106Z,101437.41
2022-12-24T17:17:49.946Z,101453.97
2022-12-24T17:22:53.055Z,101457.37
2022-12-24T17:28:01.108Z,101459.47
2022-12-24T17:33:08.090Z,101464.56
2022-12-24T17:38:13.693Z,101454.09
2022-12-24T17:43:21.850Z,101455.94
2022-12-24T17:48:24.745Z,101457.94
2022-12-24T17:53:27.661Z,101462.28
2022-12-24T17:58:35.982Z,101478.31
2022-12-24T18:03:38.913Z,101487.06
2022-12-24T18:08:43.025Z,101483.25
2022-12-24T18:29:58.863Z,101481.06
2022-12-24T18:40:57.976Z,101480.41
2022-12-24T18:46:08.072Z,101493.56
2022-12-24T20:14:35.772Z,101550.59
2022-12-24T20:30:36.868Z,101545.28
2022-12-24T21:13:19.049Z,101555.97
2022-12-24T21:18:21.856Z,101562.63
2022-12-24T21:23:24.627Z,101561.47
2022-12-24T21:44:41.622Z,101559.97
2022-12-24T21:49:44.488Z,101561.06
2022-12-24T21:54:47.323Z,101564.69
2022-12-24T22:10:45.623Z,101586.00
2022-12-24T22:15:50.451Z,101585.94
2022-12-24T22:41:46.323Z,101591.16
2022-12-24T22:52:13.795Z,101613.00
2022-12-24T23:08:00.588Z,101624.03
2022-12-24T23:29:28.775Z,101633.53
